createdAt,value
2019-06-01T00:00:51.272Z,7.97
2019-06-01T00:03:24.474Z,7.47
2019-06-01T00:05:55.463Z,8.10
2019-06-01T00:08:26.935Z,7.73
2019-06-01T00:10:58.880Z,7.53
2019-06-01T00:13:29.875Z,7.77
2019-06-01T00:16:02.854Z,7.30
2019-06-01T00:18:35.134Z,7.60
2019-06-01T00:21:06.523Z,6.63
2019-06-01T00:23:38.330Z,8.10
2019-06-01T00:26:10.097Z,7.40
2019-06-01T00:28:42.070Z,7.70
2019-06-01T00:31:13.062Z,7.37
2019-06-01T00:33:45.421Z,7.40
2019-06-01T00:36:16.842Z,6.97
2019-06-01T00:38:48.358Z,6.60
2019-06-01T00:41:20.922Z,7.30
2019-06-01T00:43:52.589Z,6.63
2019-06-01T00:46:23.657Z,6.40
2019-06-01T00:48:55.026Z,6.10
2019-06-01T00:51:27.442Z,6.50
2019-06-01T00:53:58.727Z,5.90
2019-06-01T00:56:30.579Z,6.40
2019-06-01T00:59:01.582Z,6.23
2019-06-01T01:01:33.479Z,6.60
2019-06-01T01:04:04.802Z,6.50
2019-06-01T01:06:36.687Z,6.60
2019-06-01T01:09:10.265Z,6.80
2019-06-01T01:11:42.143Z,6.20
2019-06-01T01:14:13.399Z,6.97
2019-06-01T01:16:45.501Z,6.90
2019-06-01T01:19:17.838Z,7.20
2019-06-01T01:21:52.159Z,7.30
2019-06-01T01:24:23.567Z,6.90
2019-06-01T01:26:55.250Z,6.97
2019-06-01T01:29:27.211Z,6.90
2019-06-01T01:31:58.951Z,6.47
2019-06-01T01:34:30.893Z,6.80
2019-06-01T01:37:02.155Z,6.30
2019-06-01T01:39:33.416Z,6.47
2019-06-01T01:42:04.802Z,6.50
2019-06-01T01:44:35.810Z,6.37
2019-06-01T01:47:07.436Z,7.27
2019-06-01T01:49:38.753Z,6.60
2019-06-01T01:52:10.591Z,6.87
2019-06-01T01:54:42.255Z,6.73
2019-06-01T01:57:13.531Z,6.40
2019-06-01T01:59:45.097Z,6.90
2019-06-01T02:02:16.898Z,7.17
2019-06-01T02:04:48.214Z,7.10
2019-06-01T02:07:20.217Z,7.00
2019-06-01T02:09:53.032Z,6.73
2019-06-01T02:12:24.897Z,6.17
2019-06-01T02:14:57.683Z,6.93
2019-06-01T02:17:29.455Z,6.90
2019-06-01T02:20:02.582Z,7.00
2019-06-01T02:22:34.156Z,6.77
2019-06-01T02:25:06.367Z,6.80
2019-06-01T02:27:38.147Z,6.93
2019-06-01T02:30:11.206Z,6.63
2019-06-01T02:32:42.782Z,7.10
2019-06-01T02:35:14.588Z,7.23
2019-06-01T02:37:46.157Z,7.77
2019-06-01T02:40:20.604Z,7.67
2019-06-01T02:42:51.935Z,7.70
2019-06-01T02:45:24.184Z,7.80
2019-06-01T02:47:57.342Z,7.80
2019-06-01T02:50:28.668Z,8.00
2019-06-01T02:53:01.534Z,8.60
2019-06-01T02:55:32.973Z,8.60
2019-06-01T02:58:04.558Z,8.10
2019-06-01T03:01:55.958Z,8.00
2019-06-01T03:04:16.026Z,7.63
2019-06-01T03:06:50.465Z,8.37
2019-06-01T03:09:26.055Z,8.57
2019-06-01T03:12:02.448Z,7.90
2019-06-01T03:14:37.231Z,7.63
2019-06-01T03:17:13.361Z,8.10
2019-06-01T03:19:48.414Z,7.80
2019-06-01T03:22:23.772Z,7.40
2019-06-01T03:24:57.891Z,6.90
2019-06-01T03:27:33.407Z,6.90
2019-06-01T03:30:11.615Z,7.83
2019-06-01T03:32:42.352Z,7.70
2019-06-01T03:35:14.134Z,7.60
2019-06-01T03:37:45.365Z,8.10
2019-06-01T03:40:23.692Z,7.50
2019-06-01T03:42:50.635Z,7.73
2019-06-01T03:45:22.224Z,8.30
2019-06-01T03:47:54.359Z,7.93
2019-06-01T03:50:25.659Z,7.80
2019-06-01T03:52:57.628Z,7.50
2019-06-01T03:55:28.937Z,8.90
2019-06-01T03:58:00.954Z,8.77
2019-06-01T04:00:32.891Z,8.47
2019-06-01T04:03:05.119Z,8.40
2019-06-01T04:05:36.738Z,7.57
2019-06-01T04:08:09.598Z,8.33
2019-06-01T04:10:41.687Z,8.07
2019-06-01T04:13:14.091Z,8.30
2019-06-01T04:15:45.707Z,8.50
2019-06-01T04:18:17.239Z,7.77
2019-06-01T04:20:48.722Z,8.20
2019-06-01T04:23:20.034Z,8.20
2019-06-01T04:25:51.689Z,9.07
2019-06-01T04:28:23.574Z,8.40
2019-06-01T04:30:54.928Z,8.00
2019-06-01T04:33:26.819Z,8.80
2019-06-01T04:35:58.116Z,8.60
2019-06-01T04:38:29.476Z,9.83
2019-06-01T04:41:01.500Z,8.43
2019-06-01T04:43:33.399Z,8.10
2019-06-01T04:46:06.119Z,8.27
2019-06-01T04:48:37.501Z,9.67
2019-06-01T04:51:09.278Z,12.23
2019-06-01T04:53:40.536Z,7.43
2019-06-01T04:56:13.090Z,7.27
2019-06-01T04:58:44.871Z,7.70
2019-06-01T05:01:16.391Z,7.53
2019-06-01T05:03:48.078Z,6.43
2019-06-01T05:06:20.167Z,7.77
2019-06-01T05:08:51.758Z,8.33
2019-06-01T05:11:22.757Z,8.03
2019-06-01T05:13:54.376Z,7.50
2019-06-01T05:16:26.736Z,6.83
2019-06-01T05:18:58.499Z,7.20
2019-06-01T05:21:30.474Z,7.00
2019-06-01T05:24:02.097Z,7.30
2019-06-01T05:26:33.985Z,6.27
2019-06-01T05:29:07.348Z,6.40
2019-06-01T05:31:39.490Z,7.40
2019-06-01T05:34:11.812Z,6.90
2019-06-01T05:36:44.106Z,6.03
2019-06-01T05:39:16.409Z,5.63
2019-06-01T05:41:48.666Z,5.80
2019-06-01T05:44:20.246Z,5.03
2019-06-01T05:46:51.828Z,5.97
2019-06-01T05:49:23.396Z,5.83
2019-06-01T05:51:54.730Z,6.37
2019-06-01T05:54:26.636Z,6.77
2019-06-01T05:56:59.286Z,5.97
2019-06-01T05:59:31.407Z,5.37
2019-06-01T06:02:03.152Z,4.27
2019-06-01T06:04:34.897Z,4.50
2019-06-01T06:07:06.658Z,3.80
2019-06-01T06:09:38.401Z,4.30
2019-06-01T06:12:11.251Z,4.23
2019-06-01T06:14:43.520Z,4.67
2019-06-01T06:17:17.431Z,4.50
2019-06-01T06:19:48.178Z,3.67
2019-06-01T06:22:20.329Z,3.20
2019-06-01T06:24:51.722Z,3.17
2019-06-01T06:27:23.286Z,2.90
2019-06-01T06:29:54.291Z,2.70
2019-06-01T06:32:25.286Z,4.30
2019-06-01T06:34:56.948Z,4.23
2019-06-01T06:37:28.485Z,4.40
2019-06-01T06:39:59.725Z,3.90
2019-06-01T06:42:30.956Z,4.03
2019-06-01T06:45:03.713Z,3.53
2019-06-01T06:47:35.883Z,3.60
2019-06-01T06:50:07.689Z,3.73
2019-06-01T06:52:39.488Z,3.73
2019-06-01T06:55:11.408Z,3.93
2019-06-01T06:57:43.972Z,3.93
2019-06-01T07:00:16.359Z,3.47
2019-06-01T07:02:48.027Z,3.47
2019-06-01T07:05:21.265Z,3.10
2019-06-01T07:07:53.269Z,3.50
2019-06-01T07:10:24.524Z,3.27
2019-06-01T07:12:58.104Z,3.83
2019-06-01T07:15:31.669Z,3.50
2019-06-01T07:18:02.887Z,3.53
2019-06-01T07:20:34.375Z,3.50
2019-06-01T07:23:05.742Z,2.60
2019-06-01T07:25:37.630Z,2.67
2019-06-01T07:28:09.391Z,2.70
2019-06-01T07:30:49.638Z,2.70
2019-06-01T07:33:13.930Z,2.47
2019-06-01T07:35:45.805Z,2.40
2019-06-01T07:38:17.679Z,2.10
2019-06-01T07:40:48.969Z,2.10
2019-06-01T07:43:20.956Z,2.70
2019-06-01T07:45:52.547Z,2.50
2019-06-01T07:48:24.972Z,2.43
2019-06-01T07:50:56.469Z,3.57
2019-06-01T07:53:29.410Z,2.23
2019-06-01T07:56:00.971Z,2.13
2019-06-01T07:58:32.932Z,2.10
2019-06-01T08:01:04.415Z,1.90
2019-06-01T08:03:36.243Z,2.03
2019-06-01T08:06:07.589Z,2.50
2019-06-01T08:08:38.912Z,2.53
2019-06-01T08:11:10.803Z,2.20
2019-06-01T08:13:42.413Z,2.50
2019-06-01T08:16:14.027Z,3.00
2019-06-01T08:18:45.451Z,2.67
2019-06-01T08:21:17.311Z,2.70
2019-06-01T08:23:48.561Z,2.63
2019-06-01T08:26:20.262Z,3.00
2019-06-01T08:28:51.867Z,2.30
2019-06-01T08:31:24.543Z,2.90
2019-06-01T08:33:56.510Z,3.00
2019-06-01T08:36:29.506Z,3.17
2019-06-01T08:39:00.843Z,2.90
2019-06-01T08:41:33.740Z,2.57
2019-06-01T08:44:05.484Z,2.70
2019-06-01T08:46:36.982Z,2.60
2019-06-01T08:49:08.845Z,3.00
2019-06-01T08:51:40.132Z,2.97
2019-06-01T08:54:11.990Z,3.63
2019-06-01T08:56:43.859Z,3.93
2019-06-01T08:59:15.508Z,3.87
2019-06-01T09:01:47.524Z,3.80
2019-06-01T09:04:18.820Z,3.57
2019-06-01T09:06:50.819Z,3.00
2019-06-01T09:09:22.715Z,3.93
2019-06-01T09:11:54.830Z,3.27
2019-06-01T09:14:27.263Z,3.40
2019-06-01T09:16:58.276Z,3.10
2019-06-01T09:19:29.941Z,3.27
2019-06-01T09:22:01.254Z,3.47
2019-06-01T09:24:33.968Z,3.60
2019-06-01T09:27:05.467Z,3.33
2019-06-01T09:29:37.105Z,3.00
2019-06-01T09:32:11.084Z,3.07
2019-06-01T09:34:42.579Z,3.10
2019-06-01T09:37:14.445Z,3.20
2019-06-01T09:39:46.079Z,3.50
2019-06-01T09:42:17.746Z,3.73
2019-06-01T09:44:50.436Z,3.40
2019-06-01T09:47:22.077Z,3.43
2019-06-01T09:49:53.532Z,3.60
2019-06-01T09:52:25.388Z,3.07
2019-06-01T09:54:56.638Z,3.40
2019-06-01T09:57:29.779Z,5.20
2019-06-01T10:00:01.162Z,3.23
2019-06-01T10:02:32.619Z,2.67
2019-06-01T10:05:04.016Z,3.10
2019-06-01T10:07:37.047Z,3.37
2019-06-01T10:10:08.937Z,3.10
2019-06-01T10:12:40.550Z,2.83
2019-06-01T10:15:12.001Z,2.70
2019-06-01T10:17:43.984Z,2.60
2019-06-01T10:20:15.437Z,2.80
2019-06-01T10:22:47.558Z,3.00
2019-06-01T10:25:19.526Z,3.10
2019-06-01T10:27:51.285Z,2.77
2019-06-01T10:30:23.035Z,2.57
2019-06-01T10:32:54.864Z,2.97
2019-06-01T10:35:27.306Z,2.23
2019-06-01T10:37:59.234Z,4.03
2019-06-01T10:40:31.220Z,2.60
2019-06-01T10:43:02.839Z,2.60
2019-06-01T10:45:35.708Z,3.10
2019-06-01T10:48:07.520Z,3.13
2019-06-01T10:50:40.486Z,3.17
2019-06-01T10:53:12.040Z,2.93
2019-06-01T10:55:43.390Z,3.00
2019-06-01T10:58:14.928Z,3.20
2019-06-01T11:00:50.817Z,3.00
2019-06-01T11:03:19.557Z,2.90
2019-06-01T11:05:51.417Z,3.00
2019-06-01T11:08:23.018Z,3.50
2019-06-01T11:10:55.084Z,2.93
2019-06-01T11:13:26.159Z,2.60
2019-06-01T11:15:57.840Z,2.80
2019-06-01T11:18:30.026Z,2.77
2019-06-01T11:21:01.896Z,2.53
2019-06-01T11:23:33.486Z,2.80
2019-06-01T11:26:04.439Z,2.30
2019-06-01T11:28:36.263Z,2.20
2019-06-01T11:31:07.960Z,2.23
2019-06-01T11:33:40.120Z,2.60
2019-06-01T11:36:12.331Z,2.80
2019-06-01T11:38:44.840Z,3.00
2019-06-01T11:41:19.043Z,2.60
2019-06-01T11:43:50.414Z,2.67
2019-06-01T11:46:21.723Z,2.70
2019-06-01T11:48:53.986Z,2.60
2019-06-01T11:51:25.605Z,2.70
2019-06-01T11:53:57.220Z,2.50
2019-06-01T11:56:29.164Z,3.50
2019-06-01T11:59:01.073Z,3.03
2019-06-01T12:01:32.781Z,2.70
2019-06-01T12:04:04.138Z,2.53
2019-06-01T12:06:35.684Z,2.77
2019-06-01T12:09:09.421Z,2.60
2019-06-01T12:11:40.530Z,3.50
2019-06-01T12:14:11.868Z,2.60
2019-06-01T12:16:44.733Z,2.33
2019-06-01T12:19:17.228Z,2.77
2019-06-01T12:21:48.638Z,3.00
2019-06-01T12:24:25.447Z,2.90
2019-06-01T12:26:54.480Z,2.67
2019-06-01T12:29:26.334Z,2.37
2019-06-01T12:31:57.655Z,2.97
2019-06-01T12:34:29.821Z,2.97
2019-06-01T12:37:01.468Z,2.77
2019-06-01T12:39:33.372Z,2.60
2019-06-01T12:42:04.603Z,2.57
2019-06-01T12:44:36.236Z,3.23
2019-06-01T12:47:07.586Z,3.07
2019-06-01T12:49:40.138Z,3.20
2019-06-01T12:52:11.816Z,2.93
2019-06-01T12:54:43.265Z,2.60
2019-06-01T12:57:15.088Z,2.90
2019-06-01T12:59:47.457Z,2.90
2019-06-01T13:02:18.834Z,2.97
2019-06-01T13:04:50.622Z,3.23
2019-06-01T13:07:21.948Z,3.23
2019-06-01T13:09:53.165Z,2.87
2019-06-01T13:12:24.957Z,3.17
2019-06-01T13:14:56.848Z,2.83
2019-06-01T13:17:28.120Z,2.70
2019-06-01T13:19:59.157Z,2.77
2019-06-01T13:22:31.156Z,2.93
2019-06-01T13:25:02.710Z,2.80
2019-06-01T13:27:34.066Z,2.93
2019-06-01T13:30:05.930Z,2.57
2019-06-01T13:32:37.782Z,3.60
2019-06-01T13:35:09.824Z,2.90
2019-06-01T13:37:42.691Z,2.80
2019-06-01T13:40:14.944Z,2.73
2019-06-01T13:42:47.159Z,2.70
2019-06-01T13:45:18.422Z,3.00
2019-06-01T13:47:50.269Z,3.53
2019-06-01T13:50:22.204Z,2.50
2019-06-01T13:52:54.181Z,2.87
2019-06-01T13:55:26.462Z,2.90
2019-06-01T13:57:58.552Z,2.23
2019-06-01T14:00:30.950Z,2.40
2019-06-01T14:03:02.606Z,2.57
2019-06-01T14:05:34.715Z,2.60
2019-06-01T14:08:05.782Z,3.00
2019-06-01T14:10:37.387Z,2.67
2019-06-01T14:13:08.923Z,2.47
2019-06-01T14:15:40.770Z,2.50
2019-06-01T14:18:12.479Z,3.10
2019-06-01T14:20:43.887Z,2.70
2019-06-01T14:23:15.407Z,2.50
2019-06-01T14:25:47.994Z,2.40
2019-06-01T14:28:19.887Z,2.50
2019-06-01T14:30:52.283Z,2.47
2019-06-01T14:33:23.831Z,2.03
2019-06-01T14:35:55.111Z,2.40
2019-06-01T14:38:26.946Z,2.40
2019-06-01T14:40:58.475Z,2.53
2019-06-01T14:43:30.259Z,2.37
2019-06-01T14:46:01.809Z,2.30
2019-06-01T14:48:33.631Z,2.10
2019-06-01T14:51:04.651Z,2.40
2019-06-01T14:53:35.959Z,2.17
2019-06-01T14:56:07.254Z,1.93
2019-06-01T14:58:38.525Z,2.00
2019-06-01T15:01:10.815Z,2.33
2019-06-01T15:03:42.098Z,2.47
2019-06-01T15:06:13.717Z,2.20
2019-06-01T15:08:45.122Z,2.43
2019-06-01T15:11:16.408Z,2.40
2019-06-01T15:13:48.259Z,3.20
2019-06-01T15:16:19.597Z,2.50
2019-06-01T15:18:51.564Z,2.37
2019-06-01T15:21:23.843Z,2.43
2019-06-01T15:23:56.672Z,2.50
2019-06-01T15:26:28.090Z,2.10
2019-06-01T15:29:00.618Z,2.40
2019-06-01T15:31:32.478Z,2.10
2019-06-01T15:34:04.932Z,2.20
2019-06-01T15:36:36.514Z,2.30
2019-06-01T15:39:23.624Z,2.27
2019-06-01T15:41:43.199Z,2.27
2019-06-01T15:44:15.157Z,2.00
2019-06-01T15:46:47.372Z,2.00
2019-06-01T15:49:18.963Z,2.33
2019-06-01T15:51:49.986Z,2.20
2019-06-01T15:54:21.870Z,1.80
2019-06-01T15:56:54.330Z,2.10
2019-06-01T15:59:25.894Z,2.03
2019-06-01T16:01:59.188Z,2.60
2019-06-01T16:04:30.389Z,2.20
2019-06-01T16:07:03.459Z,2.13
2019-06-01T16:09:42.549Z,2.50
2019-06-01T16:12:09.312Z,2.10
2019-06-01T16:14:40.702Z,2.33
2019-06-01T16:17:11.697Z,1.77
2019-06-01T16:19:43.267Z,1.87
2019-06-01T16:22:14.533Z,2.03
2019-06-01T16:24:46.375Z,2.23
2019-06-01T16:27:17.719Z,2.40
2019-06-01T16:29:49.040Z,2.43
2019-06-01T16:32:20.041Z,2.30
2019-06-01T16:34:52.650Z,2.30
2019-06-01T16:37:23.911Z,2.47
2019-06-01T16:39:59.714Z,2.30
2019-06-01T16:42:28.762Z,2.60
2019-06-01T16:45:00.105Z,3.30
2019-06-01T16:47:31.995Z,2.83
2019-06-01T16:50:03.864Z,2.20
2019-06-01T16:52:35.223Z,2.50
2019-06-01T16:55:07.812Z,2.90
2019-06-01T16:57:39.587Z,2.40
2019-06-01T17:00:12.118Z,3.07
2019-06-01T17:02:44.196Z,2.70
2019-06-01T17:05:16.232Z,2.97
2019-06-01T17:07:48.564Z,2.13
2019-06-01T17:10:26.258Z,2.50
2019-06-01T17:12:54.163Z,2.20
2019-06-01T17:15:26.098Z,2.20
2019-06-01T17:18:01.807Z,2.13
2019-06-01T17:20:43.490Z,1.97
2019-06-01T17:23:32.924Z,2.47
2019-06-01T17:25:48.321Z,2.30
2019-06-01T17:28:19.922Z,2.07
2019-06-01T17:30:51.680Z,2.50
2019-06-01T17:33:23.555Z,2.43
2019-06-01T17:35:54.815Z,2.47
2019-06-01T17:38:26.482Z,2.43
2019-06-01T17:40:57.793Z,2.20
2019-06-01T17:43:29.338Z,2.50
2019-06-01T17:46:00.824Z,2.10
2019-06-01T17:48:32.693Z,2.00
2019-06-01T17:51:04.520Z,2.37
2019-06-01T17:53:36.394Z,2.13
2019-06-01T17:56:08.261Z,2.50
2019-06-01T17:58:40.314Z,2.10
2019-06-01T18:01:12.126Z,2.30
2019-06-01T18:03:44.107Z,2.50
2019-06-01T18:06:16.022Z,2.23
2019-06-01T18:08:47.303Z,2.20
2019-06-01T18:11:19.018Z,2.37
2019-06-01T18:13:50.527Z,2.43
2019-06-01T18:16:21.982Z,2.40
2019-06-01T18:18:53.536Z,3.30
2019-06-01T18:21:25.323Z,3.77
2019-06-01T18:23:57.358Z,3.10
2019-06-01T18:26:29.294Z,3.87
2019-06-01T18:29:02.406Z,3.87
2019-06-01T18:31:33.743Z,4.70
2019-06-01T18:34:05.477Z,4.60
2019-06-01T18:36:36.843Z,4.43
2019-06-01T18:39:09.590Z,4.50
2019-06-01T18:41:41.452Z,5.63
2019-06-01T18:44:14.045Z,5.10
2019-06-01T18:46:45.839Z,5.00
2019-06-01T18:49:18.255Z,5.13
2019-06-01T18:51:50.311Z,5.97
2019-06-01T18:54:22.496Z,6.30
2019-06-01T18:57:09.050Z,6.27
2019-06-01T18:59:27.278Z,5.53
2019-06-01T19:01:58.871Z,5.73
2019-06-01T19:04:30.383Z,5.47
2019-06-01T19:07:02.503Z,5.43
2019-06-01T19:09:33.587Z,5.60
2019-06-01T19:12:05.085Z,5.90
2019-06-01T19:14:36.429Z,6.07
2019-06-01T19:17:08.335Z,5.80
2019-06-01T19:19:39.595Z,5.63
2019-06-01T19:22:10.564Z,5.43
2019-06-01T19:24:42.248Z,5.50
2019-06-01T19:27:14.915Z,5.73
2019-06-01T19:29:46.791Z,4.70
2019-06-01T19:32:21.204Z,4.07
2019-06-01T19:34:52.225Z,4.60
2019-06-01T19:37:25.556Z,4.17
2019-06-01T19:39:57.821Z,4.20
2019-06-01T19:42:29.344Z,4.10
2019-06-01T19:45:01.427Z,4.30
2019-06-01T19:47:33.276Z,4.27
2019-06-01T19:50:06.355Z,3.67
2019-06-01T19:52:37.665Z,3.67
2019-06-01T19:55:10.720Z,3.60
2019-06-01T19:57:42.512Z,4.30
2019-06-01T20:00:14.341Z,4.10
2019-06-01T20:02:46.395Z,4.63
2019-06-01T20:05:18.787Z,4.90
2019-06-01T20:07:50.582Z,3.90
2019-06-01T20:10:22.650Z,3.57
2019-06-01T20:12:54.830Z,3.87
2019-06-01T20:15:26.687Z,4.20
2019-06-01T20:17:58.313Z,4.30
2019-06-01T20:20:29.653Z,3.90
2019-06-01T20:23:01.428Z,4.17
2019-06-01T20:25:32.990Z,4.10
2019-06-01T20:28:04.067Z,4.20
2019-06-01T20:30:35.346Z,3.90
2019-06-01T20:33:06.406Z,4.33
2019-06-01T20:35:37.890Z,3.70
2019-06-01T20:38:09.499Z,3.27
2019-06-01T20:40:41.554Z,3.33
2019-06-01T20:43:14.529Z,3.10
2019-06-01T20:45:46.647Z,2.90
2019-06-01T20:48:18.829Z,3.30
2019-06-01T20:50:50.383Z,2.90
2019-06-01T20:53:23.258Z,3.23
2019-06-01T20:55:54.662Z,3.30
2019-06-01T20:58:26.026Z,3.00
2019-06-01T21:00:57.601Z,2.73
2019-06-01T21:03:28.913Z,3.10
2019-06-01T21:05:59.911Z,3.07
2019-06-01T21:08:31.853Z,2.90
2019-06-01T21:11:03.173Z,2.47
2019-06-01T21:13:34.954Z,2.80
2019-06-01T21:16:06.363Z,2.47
2019-06-01T21:18:37.957Z,2.53
2019-06-01T21:21:09.724Z,3.00
2019-06-01T21:23:41.030Z,2.70
2019-06-01T21:26:15.013Z,2.73
2019-06-01T21:28:46.727Z,2.93
2019-06-01T21:31:18.944Z,2.63
2019-06-01T21:33:50.308Z,2.73
2019-06-01T21:36:21.894Z,2.50
2019-06-01T21:38:53.699Z,2.30
2019-06-01T21:41:25.795Z,2.63
2019-06-01T21:43:57.475Z,2.50
2019-06-01T21:46:29.088Z,3.03
2019-06-01T21:49:00.129Z,2.50
2019-06-01T21:51:32.030Z,2.60
2019-06-01T21:54:03.380Z,2.20
2019-06-01T21:56:35.447Z,2.47
2019-06-01T21:59:07.174Z,2.70
2019-06-01T22:01:38.915Z,2.70
2019-06-01T22:04:10.199Z,2.63
2019-06-01T22:06:46.059Z,2.77
2019-06-01T22:09:14.674Z,2.60
2019-06-01T22:11:46.215Z,2.77
2019-06-01T22:14:19.321Z,3.00
2019-06-01T22:16:51.056Z,3.00
2019-06-01T22:19:23.902Z,2.50
2019-06-01T22:21:55.673Z,3.00
2019-06-01T22:24:28.196Z,2.40
2019-06-01T22:26:59.992Z,2.70
2019-06-01T22:29:31.063Z,3.03
2019-06-01T22:32:03.126Z,2.70
2019-06-01T22:34:34.984Z,2.53
2019-06-01T22:37:06.580Z,2.77
2019-06-01T22:39:38.480Z,2.67
2019-06-01T22:42:10.404Z,3.17
2019-06-01T22:44:41.967Z,2.90
2019-06-01T22:47:13.817Z,2.90
2019-06-01T22:49:45.126Z,2.80
2019-06-01T22:52:16.443Z,2.83
2019-06-01T22:54:48.338Z,3.00
2019-06-01T22:57:20.344Z,2.80
2019-06-01T22:59:52.701Z,2.60
2019-06-01T23:02:25.613Z,2.90
2019-06-01T23:04:57.556Z,2.90
2019-06-01T23:07:29.297Z,3.37
2019-06-01T23:10:01.200Z,3.10
2019-06-01T23:12:32.186Z,3.40
2019-06-01T23:15:03.251Z,3.10
2019-06-01T23:17:35.039Z,3.30
2019-06-01T23:20:07.762Z,3.30
2019-06-01T23:22:39.335Z,3.27
2019-06-01T23:25:10.829Z,3.30
2019-06-01T23:27:42.339Z,3.30
2019-06-01T23:30:14.322Z,3.37
2019-06-01T23:32:46.330Z,3.60
2019-06-01T23:35:17.352Z,3.70
2019-06-01T23:37:48.652Z,3.63
2019-06-01T23:40:20.246Z,4.27
2019-06-01T23:42:51.885Z,3.83
2019-06-01T23:45:24.571Z,3.60
2019-06-01T23:47:56.442Z,3.83
2019-06-01T23:50:27.670Z,4.03
2019-06-01T23:53:12.722Z,4.03
2019-06-01T23:55:34.141Z,3.97
2019-06-01T23:58:06.229Z,3.93
